NO-0071 weather

Hurdal Airstrip
Akershus, Norway

Public forecast

Using degrees Celsius for public forecast. Weather courtesy of forecast.io.

Closest aviation weather report (METAR) to Hurdal Airstrip

Closest report is Oslo Gardermoen Airport, 10.1 nm (18.7 km) S. Retrieved 2020/07/12 06:20 UTC (21 minutes ago):

ENGM 120620Z 33003KT 240V010 CAVOK 12/04 Q1016 NOSIG

Closest aviation forecast (TAF) to Hurdal Airstrip

Closest forecast is Oslo Gardermoen Airport, 10.1 nm (18.7 km) S. Retrieved 2020/07/12 06:57 UTC (0 seconds ago):

TAF ENGM 120500Z 1206/1306 34005KT 9999 FEW040 SCT080